sensor_id;sensor_type;location;lat;lon;timestamp;P1;durP1;ratioP1;P2;durP2;ratioP2
75437;SDS011;64015;49.392;15.582;2023-08-01T00:01:17;3.72;;;2.38;;
75437;SDS011;64015;49.392;15.582;2023-08-01T00:03:43;6.00;;;2.75;;
75437;SDS011;64015;49.392;15.582;2023-08-01T00:06:08;4.47;;;2.35;;
75437;SDS011;64015;49.392;15.582;2023-08-01T00:08:34;4.53;;;2.50;;
75437;SDS011;64015;49.392;15.582;2023-08-01T00:11:00;5.20;;;2.50;;
75437;SDS011;64015;49.392;15.582;2023-08-01T00:13:25;4.07;;;2.38;;
75437;SDS011;64015;49.392;15.582;2023-08-01T00:15:51;4.82;;;2.63;;
75437;SDS011;64015;49.392;15.582;2023-08-01T00:18:25;4.88;;;2.42;;
75437;SDS011;64015;49.392;15.582;2023-08-01T00:20:54;4.25;;;2.67;;
75437;SDS011;64015;49.392;15.582;2023-08-01T00:23:20;6.78;;;2.65;;
75437;SDS011;64015;49.392;15.582;2023-08-01T00:25:45;4.05;;;2.45;;
75437;SDS011;64015;49.392;15.582;2023-08-01T00:28:21;3.58;;;1.92;;
75437;SDS011;64015;49.392;15.582;2023-08-01T00:30:47;6.63;;;2.65;;
75437;SDS011;64015;49.392;15.582;2023-08-01T00:33:21;4.60;;;2.78;;
75437;SDS011;64015;49.392;15.582;2023-08-01T00:35:52;4.13;;;2.08;;
75437;SDS011;64015;49.392;15.582;2023-08-01T00:38:19;4.80;;;2.60;;
75437;SDS011;64015;49.392;15.582;2023-08-01T00:40:45;8.20;;;2.67;;
75437;SDS011;64015;49.392;15.582;2023-08-01T00:43:10;3.83;;;2.65;;
75437;SDS011;64015;49.392;15.582;2023-08-01T00:45:36;4.70;;;2.20;;
75437;SDS011;64015;49.392;15.582;2023-08-01T00:48:02;3.60;;;2.50;;
75437;SDS011;64015;49.392;15.582;2023-08-01T00:50:27;3.80;;;2.45;;
75437;SDS011;64015;49.392;15.582;2023-08-01T00:52:53;4.20;;;2.40;;
75437;SDS011;64015;49.392;15.582;2023-08-01T00:55:21;4.05;;;2.40;;
75437;SDS011;64015;49.392;15.582;2023-08-01T00:57:47;5.75;;;2.80;;
75437;SDS011;64015;49.392;15.582;2023-08-01T01:00:13;4.20;;;2.70;;
75437;SDS011;64015;49.392;15.582;2023-08-01T01:02:39;5.60;;;2.50;;
75437;SDS011;64015;49.392;15.582;2023-08-01T01:05:06;4.00;;;2.25;;
75437;SDS011;64015;49.392;15.582;2023-08-01T01:07:32;5.88;;;2.45;;
75437;SDS011;64015;49.392;15.582;2023-08-01T01:09:58;4.18;;;2.65;;
75437;SDS011;64015;49.392;15.582;2023-08-01T01:12:24;4.25;;;2.35;;
75437;SDS011;64015;49.392;15.582;2023-08-01T01:14:50;6.53;;;2.55;;
75437;SDS011;64015;49.392;15.582;2023-08-01T01:17:15;4.00;;;1.80;;
75437;SDS011;64015;49.392;15.582;2023-08-01T01:19:41;4.45;;;2.65;;
75437;SDS011;64015;49.392;15.582;2023-08-01T01:22:07;4.72;;;2.50;;
75437;SDS011;64015;49.392;15.582;2023-08-01T01:24:35;4.55;;;2.38;;
75437;SDS011;64015;49.392;15.582;2023-08-01T01:27:03;6.75;;;2.33;;
75437;SDS011;64015;49.392;15.582;2023-08-01T01:29:31;4.00;;;2.65;;
75437;SDS011;64015;49.392;15.582;2023-08-01T01:31:59;6.55;;;3.10;;
75437;SDS011;64015;49.392;15.582;2023-08-01T01:36:51;3.70;;;1.92;;
75437;SDS011;64015;49.392;15.582;2023-08-01T01:39:17;4.85;;;2.63;;
75437;SDS011;64015;49.392;15.582;2023-08-01T01:41:43;4.63;;;2.40;;
75437;SDS011;64015;49.392;15.582;2023-08-01T01:44:09;5.13;;;2.20;;
75437;SDS011;64015;49.392;15.582;2023-08-01T01:46:34;4.07;;;2.30;;
75437;SDS011;64015;49.392;15.582;2023-08-01T01:49:00;3.55;;;2.30;;
75437;SDS011;64015;49.392;15.582;2023-08-01T01:51:26;4.18;;;2.42;;
75437;SDS011;64015;49.392;15.582;2023-08-01T01:54:03;6.25;;;2.92;;
75437;SDS011;64015;49.392;15.582;2023-08-01T01:56:29;3.60;;;2.58;;
75437;SDS011;64015;49.392;15.582;2023-08-01T01:58:58;7.40;;;3.42;;
75437;SDS011;64015;49.392;15.582;2023-08-01T02:01:24;5.30;;;3.17;;
75437;SDS011;64015;49.392;15.582;2023-08-01T02:03:49;5.18;;;2.97;;
75437;SDS011;64015;49.392;15.582;2023-08-01T02:06:15;3.97;;;2.67;;
75437;SDS011;64015;49.392;15.582;2023-08-01T02:08:40;6.18;;;2.50;;
75437;SDS011;64015;49.392;15.582;2023-08-01T02:11:06;5.85;;;2.88;;
75437;SDS011;64015;49.392;15.582;2023-08-01T02:13:32;3.55;;;2.63;;
75437;SDS011;64015;49.392;15.582;2023-08-01T02:15:58;4.20;;;2.75;;
75437;SDS011;64015;49.392;15.582;2023-08-01T02:18:23;4.65;;;2.63;;
75437;SDS011;64015;49.392;15.582;2023-08-01T02:20:49;5.80;;;2.80;;
75437;SDS011;64015;49.392;15.582;2023-08-01T02:23:15;7.57;;;2.92;;
75437;SDS011;64015;49.392;15.582;2023-08-01T02:25:42;4.63;;;2.95;;
75437;SDS011;64015;49.392;15.582;2023-08-01T02:28:07;6.50;;;2.90;;
75437;SDS011;64015;49.392;15.582;2023-08-01T02:30:34;7.38;;;3.05;;
75437;SDS011;64015;49.392;15.582;2023-08-01T02:33:00;4.90;;;2.70;;
75437;SDS011;64015;49.392;15.582;2023-08-01T02:35:27;6.18;;;2.85;;
75437;SDS011;64015;49.392;15.582;2023-08-01T02:37:53;5.25;;;2.88;;
75437;SDS011;64015;49.392;15.582;2023-08-01T02:40:19;5.00;;;3.17;;
75437;SDS011;64015;49.392;15.582;2023-08-01T02:42:45;5.63;;;2.47;;
75437;SDS011;64015;49.392;15.582;2023-08-01T02:45:11;6.03;;;2.60;;
75437;SDS011;64015;49.392;15.582;2023-08-01T02:47:36;6.13;;;3.30;;
75437;SDS011;64015;49.392;15.582;2023-08-01T02:50:02;5.07;;;2.30;;
75437;SDS011;64015;49.392;15.582;2023-08-01T02:52:28;8.85;;;3.13;;
75437;SDS011;64015;49.392;15.582;2023-08-01T02:54:53;4.50;;;2.13;;
75437;SDS011;64015;49.392;15.582;2023-08-01T02:57:19;4.60;;;2.63;;
75437;SDS011;64015;49.392;15.582;2023-08-01T02:59:45;7.55;;;3.00;;
75437;SDS011;64015;49.392;15.582;2023-08-01T03:02:11;5.47;;;2.38;;
75437;SDS011;64015;49.392;15.582;2023-08-01T03:04:36;3.92;;;2.50;;
75437;SDS011;64015;49.392;15.582;2023-08-01T03:07:02;5.18;;;2.63;;
75437;SDS011;64015;49.392;15.582;2023-08-01T03:09:28;7.20;;;2.50;;
75437;SDS011;64015;49.392;15.582;2023-08-01T03:11:54;4.05;;;2.67;;
75437;SDS011;64015;49.392;15.582;2023-08-01T03:14:20;6.25;;;2.55;;
75437;SDS011;64015;49.392;15.582;2023-08-01T03:16:46;6.05;;;2.97;;
75437;SDS011;64015;49.392;15.582;2023-08-01T03:19:12;5.07;;;2.38;;
75437;SDS011;64015;49.392;15.582;2023-08-01T03:21:38;4.90;;;2.85;;
75437;SDS011;64015;49.392;15.582;2023-08-01T03:24:05;4.82;;;3.00;;
75437;SDS011;64015;49.392;15.582;2023-08-01T03:26:34;4.40;;;2.90;;
75437;SDS011;64015;49.392;15.582;2023-08-01T03:29:03;5.38;;;2.92;;
75437;SDS011;64015;49.392;15.582;2023-08-01T03:31:30;4.32;;;2.92;;
75437;SDS011;64015;49.392;15.582;2023-08-01T03:33:56;4.80;;;3.00;;
75437;SDS011;64015;49.392;15.582;2023-08-01T03:36:24;5.45;;;2.97;;
75437;SDS011;64015;49.392;15.582;2023-08-01T03:38:50;4.80;;;2.97;;
75437;SDS011;64015;49.392;15.582;2023-08-01T03:41:16;4.63;;;2.63;;
75437;SDS011;64015;49.392;15.582;2023-08-01T03:43:41;5.60;;;2.70;;
75437;SDS011;64015;49.392;15.582;2023-08-01T03:46:07;5.22;;;2.92;;
75437;SDS011;64015;49.392;15.582;2023-08-01T03:48:33;5.80;;;3.15;;
75437;SDS011;64015;49.392;15.582;2023-08-01T03:50:58;5.22;;;2.90;;
75437;SDS011;64015;49.392;15.582;2023-08-01T03:53:25;4.18;;;2.58;;
75437;SDS011;64015;49.392;15.582;2023-08-01T03:55:51;5.70;;;2.80;;
75437;SDS011;64015;49.392;15.582;2023-08-01T03:58:17;5.15;;;2.30;;
75437;SDS011;64015;49.392;15.582;2023-08-01T04:00:42;4.07;;;2.75;;
75437;SDS011;64015;49.392;15.582;2023-08-01T04:03:08;4.53;;;2.47;;
75437;SDS011;64015;49.392;15.582;2023-08-01T04:05:34;5.93;;;2.90;;
75437;SDS011;64015;49.392;15.582;2023-08-01T04:08:00;8.73;;;3.20;;
75437;SDS011;64015;49.392;15.582;2023-08-01T04:10:25;4.13;;;2.50;;
75437;SDS011;64015;49.392;15.582;2023-08-01T04:12:51;4.72;;;2.75;;
75437;SDS011;64015;49.392;15.582;2023-08-01T04:15:17;5.10;;;2.63;;
75437;SDS011;64015;49.392;15.582;2023-08-01T04:17:43;4.47;;;2.85;;
75437;SDS011;64015;49.392;15.582;2023-08-01T04:20:08;5.50;;;2.65;;
75437;SDS011;64015;49.392;15.582;2023-08-01T04:22:34;4.85;;;2.60;;
75437;SDS011;64015;49.392;15.582;2023-08-01T04:25:00;4.03;;;2.55;;
75437;SDS011;64015;49.392;15.582;2023-08-01T04:27:27;5.50;;;2.83;;
75437;SDS011;64015;49.392;15.582;2023-08-01T04:29:52;4.05;;;2.22;;
75437;SDS011;64015;49.392;15.582;2023-08-01T04:32:19;6.25;;;2.75;;
75437;SDS011;64015;49.392;15.582;2023-08-01T04:34:45;4.85;;;2.53;;
75437;SDS011;64015;49.392;15.582;2023-08-01T04:37:11;3.22;;;2.22;;
75437;SDS011;64015;49.392;15.582;2023-08-01T04:39:36;5.57;;;2.55;;
75437;SDS011;64015;49.392;15.582;2023-08-01T04:42:02;5.85;;;2.70;;
75437;SDS011;64015;49.392;15.582;2023-08-01T04:44:28;5.78;;;2.60;;
75437;SDS011;64015;49.392;15.582;2023-08-01T04:46:56;8.18;;;2.75;;
75437;SDS011;64015;49.392;15.582;2023-08-01T04:51:48;5.00;;;2.55;;
75437;SDS011;64015;49.392;15.582;2023-08-01T04:54:14;4.75;;;2.38;;
75437;SDS011;64015;49.392;15.582;2023-08-01T04:56:40;4.43;;;2.72;;
75437;SDS011;64015;49.392;15.582;2023-08-01T04:59:06;5.53;;;2.90;;
75437;SDS011;64015;49.392;15.582;2023-08-01T05:01:32;6.95;;;2.67;;
75437;SDS011;64015;49.392;15.582;2023-08-01T05:03:58;5.30;;;2.88;;
75437;SDS011;64015;49.392;15.582;2023-08-01T05:06:24;5.88;;;2.83;;
75437;SDS011;64015;49.392;15.582;2023-08-01T05:08:49;7.35;;;3.38;;
75437;SDS011;64015;49.392;15.582;2023-08-01T05:11:17;4.65;;;2.42;;
75437;SDS011;64015;49.392;15.582;2023-08-01T05:13:42;6.15;;;2.83;;
75437;SDS011;64015;49.392;15.582;2023-08-01T05:16:08;5.50;;;2.80;;
75437;SDS011;64015;49.392;15.582;2023-08-01T05:18:34;12.10;;;3.60;;
75437;SDS011;64015;49.392;15.582;2023-08-01T05:20:59;4.10;;;2.55;;
75437;SDS011;64015;49.392;15.582;2023-08-01T05:23:25;5.70;;;3.13;;
75437;SDS011;64015;49.392;15.582;2023-08-01T05:25:51;4.80;;;3.05;;
75437;SDS011;64015;49.392;15.582;2023-08-01T05:28:16;8.32;;;2.97;;
75437;SDS011;64015;49.392;15.582;2023-08-01T05:30:42;6.95;;;3.03;;
75437;SDS011;64015;49.392;15.582;2023-08-01T05:33:08;4.30;;;2.80;;
75437;SDS011;64015;49.392;15.582;2023-08-01T05:35:34;5.65;;;2.88;;
75437;SDS011;64015;49.392;15.582;2023-08-01T05:37:59;4.72;;;2.67;;
75437;SDS011;64015;49.392;15.582;2023-08-01T05:40:26;4.72;;;2.72;;
75437;SDS011;64015;49.392;15.582;2023-08-01T05:42:51;7.10;;;2.83;;
75437;SDS011;64015;49.392;15.582;2023-08-01T05:45:17;4.18;;;2.63;;
75437;SDS011;64015;49.392;15.582;2023-08-01T05:47:43;4.97;;;3.20;;
75437;SDS011;64015;49.392;15.582;2023-08-01T05:50:09;5.30;;;2.60;;
75437;SDS011;64015;49.392;15.582;2023-08-01T05:52:35;4.75;;;2.45;;
75437;SDS011;64015;49.392;15.582;2023-08-01T05:55:01;6.53;;;2.72;;
75437;SDS011;64015;49.392;15.582;2023-08-01T05:57:27;6.35;;;2.80;;
75437;SDS011;64015;49.392;15.582;2023-08-01T05:59:53;4.93;;;2.70;;
75437;SDS011;64015;49.392;15.582;2023-08-01T06:02:18;4.63;;;2.40;;
75437;SDS011;64015;49.392;15.582;2023-08-01T06:04:44;5.28;;;2.70;;
75437;SDS011;64015;49.392;15.582;2023-08-01T06:07:10;4.97;;;2.30;;
75437;SDS011;64015;49.392;15.582;2023-08-01T06:09:35;4.65;;;2.55;;
75437;SDS011;64015;49.392;15.582;2023-08-01T06:12:01;5.68;;;2.20;;
75437;SDS011;64015;49.392;15.582;2023-08-01T06:14:27;4.95;;;2.50;;
75437;SDS011;64015;49.392;15.582;2023-08-01T06:16:55;5.35;;;2.50;;
75437;SDS011;64015;49.392;15.582;2023-08-01T06:19:21;6.28;;;3.38;;
75437;SDS011;64015;49.392;15.582;2023-08-01T06:21:46;4.00;;;2.47;;
75437;SDS011;64015;49.392;15.582;2023-08-01T06:24:12;7.18;;;2.45;;
75437;SDS011;64015;49.392;15.582;2023-08-01T06:26:38;5.70;;;2.92;;
75437;SDS011;64015;49.392;15.582;2023-08-01T06:29:04;6.50;;;2.67;;
75437;SDS011;64015;49.392;15.582;2023-08-01T06:31:30;7.75;;;2.95;;
75437;SDS011;64015;49.392;15.582;2023-08-01T06:33:56;4.70;;;3.38;;
75437;SDS011;64015;49.392;15.582;2023-08-01T06:36:22;4.40;;;2.58;;
75437;SDS011;64015;49.392;15.582;2023-08-01T06:38:48;5.70;;;3.00;;
75437;SDS011;64015;49.392;15.582;2023-08-01T06:41:13;3.85;;;2.40;;
75437;SDS011;64015;49.392;15.582;2023-08-01T06:43:39;7.70;;;3.38;;
75437;SDS011;64015;49.392;15.582;2023-08-01T06:46:05;5.97;;;2.90;;
75437;SDS011;64015;49.392;15.582;2023-08-01T06:48:31;5.00;;;2.60;;
75437;SDS011;64015;49.392;15.582;2023-08-01T06:51:00;4.82;;;2.97;;
75437;SDS011;64015;49.392;15.582;2023-08-01T06:53:27;5.93;;;3.00;;
75437;SDS011;64015;49.392;15.582;2023-08-01T06:55:52;5.10;;;2.40;;
75437;SDS011;64015;49.392;15.582;2023-08-01T06:58:18;6.38;;;2.85;;
75437;SDS011;64015;49.392;15.582;2023-08-01T07:00:44;8.85;;;3.40;;
75437;SDS011;64015;49.392;15.582;2023-08-01T07:03:10;8.25;;;3.03;;
75437;SDS011;64015;49.392;15.582;2023-08-01T07:05:35;6.03;;;2.83;;
75437;SDS011;64015;49.392;15.582;2023-08-01T07:10:28;6.07;;;2.95;;
75437;SDS011;64015;49.392;15.582;2023-08-01T07:12:55;6.88;;;3.42;;
75437;SDS011;64015;49.392;15.582;2023-08-01T07:15:21;4.30;;;2.60;;
75437;SDS011;64015;49.392;15.582;2023-08-01T07:17:47;5.43;;;3.13;;
75437;SDS011;64015;49.392;15.582;2023-08-01T07:20:15;7.40;;;3.35;;
75437;SDS011;64015;49.392;15.582;2023-08-01T07:22:47;7.22;;;3.33;;
75437;SDS011;64015;49.392;15.582;2023-08-01T07:25:12;6.30;;;3.25;;
75437;SDS011;64015;49.392;15.582;2023-08-01T07:27:39;6.03;;;3.50;;
75437;SDS011;64015;49.392;15.582;2023-08-01T07:30:05;8.15;;;3.35;;
75437;SDS011;64015;49.392;15.582;2023-08-01T07:32:31;5.18;;;2.97;;
75437;SDS011;64015;49.392;15.582;2023-08-01T07:34:57;5.28;;;2.95;;
75437;SDS011;64015;49.392;15.582;2023-08-01T07:37:23;5.70;;;3.25;;
75437;SDS011;64015;49.392;15.582;2023-08-01T07:39:54;5.60;;;3.50;;
75437;SDS011;64015;49.392;15.582;2023-08-01T07:42:21;10.05;;;4.05;;
75437;SDS011;64015;49.392;15.582;2023-08-01T07:44:46;6.90;;;3.45;;
75437;SDS011;64015;49.392;15.582;2023-08-01T07:47:13;6.00;;;3.28;;
75437;SDS011;64015;49.392;15.582;2023-08-01T07:49:42;6.40;;;3.20;;
75437;SDS011;64015;49.392;15.582;2023-08-01T07:52:08;6.53;;;3.72;;
75437;SDS011;64015;49.392;15.582;2023-08-01T07:54:34;6.30;;;3.10;;
75437;SDS011;64015;49.392;15.582;2023-08-01T07:57:00;5.85;;;3.42;;
75437;SDS011;64015;49.392;15.582;2023-08-01T07:59:25;8.85;;;3.65;;
75437;SDS011;64015;49.392;15.582;2023-08-01T08:01:51;5.85;;;3.63;;
75437;SDS011;64015;49.392;15.582;2023-08-01T08:06:56;7.55;;;3.75;;
75437;SDS011;64015;49.392;15.582;2023-08-01T08:09:25;9.50;;;3.97;;
75437;SDS011;64015;49.392;15.582;2023-08-01T08:11:52;6.32;;;3.25;;
75437;SDS011;64015;49.392;15.582;2023-08-01T08:14:17;9.65;;;4.05;;
75437;SDS011;64015;49.392;15.582;2023-08-01T08:16:55;6.93;;;3.13;;
75437;SDS011;64015;49.392;15.582;2023-08-01T08:19:20;6.68;;;3.80;;
75437;SDS011;64015;49.392;15.582;2023-08-01T08:21:48;6.75;;;3.45;;
75437;SDS011;64015;49.392;15.582;2023-08-01T08:24:14;5.30;;;2.92;;
75437;SDS011;64015;49.392;15.582;2023-08-01T08:26:40;6.50;;;3.17;;
75437;SDS011;64015;49.392;15.582;2023-08-01T08:29:06;5.95;;;3.58;;
75437;SDS011;64015;49.392;15.582;2023-08-01T08:31:32;6.88;;;3.47;;
75437;SDS011;64015;49.392;15.582;2023-08-01T08:33:58;4.72;;;2.90;;
75437;SDS011;64015;49.392;15.582;2023-08-01T08:36:30;5.95;;;3.28;;
75437;SDS011;64015;49.392;15.582;2023-08-01T08:39:08;6.38;;;3.70;;
75437;SDS011;64015;49.392;15.582;2023-08-01T08:41:45;6.38;;;2.95;;
75437;SDS011;64015;49.392;15.582;2023-08-01T08:44:22;6.18;;;4.03;;
75437;SDS011;64015;49.392;15.582;2023-08-01T08:46:51;6.93;;;3.83;;
75437;SDS011;64015;49.392;15.582;2023-08-01T08:49:19;7.70;;;3.53;;
75437;SDS011;64015;49.392;15.582;2023-08-01T08:51:49;6.07;;;3.85;;
75437;SDS011;64015;49.392;15.582;2023-08-01T08:54:15;7.53;;;3.53;;
75437;SDS011;64015;49.392;15.582;2023-08-01T08:56:42;6.82;;;3.75;;
75437;SDS011;64015;49.392;15.582;2023-08-01T08:59:08;6.10;;;3.42;;
75437;SDS011;64015;49.392;15.582;2023-08-01T09:01:37;7.43;;;3.63;;
75437;SDS011;64015;49.392;15.582;2023-08-01T09:04:04;8.20;;;3.72;;
75437;SDS011;64015;49.392;15.582;2023-08-01T09:09:11;4.50;;;2.70;;
75437;SDS011;64015;49.392;15.582;2023-08-01T09:11:49;5.80;;;3.03;;
75437;SDS011;64015;49.392;15.582;2023-08-01T09:14:16;6.82;;;3.42;;
75437;SDS011;64015;49.392;15.582;2023-08-01T09:16:44;8.98;;;3.63;;
75437;SDS011;64015;49.392;15.582;2023-08-01T09:19:22;6.55;;;3.60;;
75437;SDS011;64015;49.392;15.582;2023-08-01T09:21:59;6.13;;;3.17;;
75437;SDS011;64015;49.392;15.582;2023-08-01T09:24:31;8.88;;;4.05;;
75437;SDS011;64015;49.392;15.582;2023-08-01T09:27:02;5.78;;;2.95;;
75437;SDS011;64015;49.392;15.582;2023-08-01T09:29:33;4.97;;;3.22;;
75437;SDS011;64015;49.392;15.582;2023-08-01T09:31:59;7.25;;;4.13;;
75437;SDS011;64015;49.392;15.582;2023-08-01T09:34:25;6.47;;;3.65;;
75437;SDS011;64015;49.392;15.582;2023-08-01T09:36:59;6.75;;;3.85;;
75437;SDS011;64015;49.392;15.582;2023-08-01T09:39:25;7.43;;;3.80;;
75437;SDS011;64015;49.392;15.582;2023-08-01T09:42:09;7.07;;;3.70;;
75437;SDS011;64015;49.392;15.582;2023-08-01T09:44:36;6.25;;;3.60;;
75437;SDS011;64015;49.392;15.582;2023-08-01T09:47:03;8.07;;;3.75;;
75437;SDS011;64015;49.392;15.582;2023-08-01T09:49:30;7.35;;;3.80;;
75437;SDS011;64015;49.392;15.582;2023-08-01T09:51:56;6.18;;;3.78;;
75437;SDS011;64015;49.392;15.582;2023-08-01T09:54:23;7.55;;;2.95;;
75437;SDS011;64015;49.392;15.582;2023-08-01T09:56:50;6.65;;;3.53;;
75437;SDS011;64015;49.392;15.582;2023-08-01T09:59:18;7.03;;;3.92;;
75437;SDS011;64015;49.392;15.582;2023-08-01T10:01:47;5.97;;;3.10;;
75437;SDS011;64015;49.392;15.582;2023-08-01T10:04:30;6.20;;;3.10;;
75437;SDS011;64015;49.392;15.582;2023-08-01T10:06:59;5.75;;;3.42;;
75437;SDS011;64015;49.392;15.582;2023-08-01T10:09:31;5.68;;;3.10;;
75437;SDS011;64015;49.392;15.582;2023-08-01T10:11:59;8.00;;;3.08;;
75437;SDS011;64015;49.392;15.582;2023-08-01T10:14:25;5.63;;;2.80;;
75437;SDS011;64015;49.392;15.582;2023-08-01T10:16:51;6.13;;;3.28;;
75437;SDS011;64015;49.392;15.582;2023-08-01T10:19:18;6.50;;;2.60;;
75437;SDS011;64015;49.392;15.582;2023-08-01T10:21:47;5.63;;;3.20;;
75437;SDS011;64015;49.392;15.582;2023-08-01T10:24:14;4.63;;;2.50;;
75437;SDS011;64015;49.392;15.582;2023-08-01T10:26:46;5.28;;;3.10;;
75437;SDS011;64015;49.392;15.582;2023-08-01T10:29:12;5.97;;;3.08;;
75437;SDS011;64015;49.392;15.582;2023-08-01T10:31:38;5.97;;;3.50;;
75437;SDS011;64015;49.392;15.582;2023-08-01T10:34:04;5.75;;;2.50;;
75437;SDS011;64015;49.392;15.582;2023-08-01T10:36:32;5.03;;;2.80;;
75437;SDS011;64015;49.392;15.582;2023-08-01T10:38:59;7.95;;;2.60;;
75437;SDS011;64015;49.392;15.582;2023-08-01T10:41:33;5.72;;;2.97;;
75437;SDS011;64015;49.392;15.582;2023-08-01T10:49:42;4.85;;;2.50;;
75437;SDS011;64015;49.392;15.582;2023-08-01T10:52:19;7.45;;;2.88;;
75437;SDS011;64015;49.392;15.582;2023-08-01T10:54:58;6.88;;;2.67;;
75437;SDS011;64015;49.392;15.582;2023-08-01T10:57:27;7.07;;;3.42;;
75437;SDS011;64015;49.392;15.582;2023-08-01T10:59:54;5.97;;;3.25;;
75437;SDS011;64015;49.392;15.582;2023-08-01T11:02:22;6.18;;;3.10;;
75437;SDS011;64015;49.392;15.582;2023-08-01T11:04:59;5.07;;;2.80;;
75437;SDS011;64015;49.392;15.582;2023-08-01T11:07:33;5.30;;;2.53;;
75437;SDS011;64015;49.392;15.582;2023-08-01T11:10:10;4.93;;;3.05;;
75437;SDS011;64015;49.392;15.582;2023-08-01T11:15:06;5.95;;;2.90;;
75437;SDS011;64015;49.392;15.582;2023-08-01T11:17:36;4.95;;;3.13;;
75437;SDS011;64015;49.392;15.582;2023-08-01T11:20:06;5.85;;;3.15;;
75437;SDS011;64015;49.392;15.582;2023-08-01T11:22:55;8.10;;;3.13;;
75437;SDS011;64015;49.392;15.582;2023-08-01T11:25:33;7.05;;;3.00;;
75437;SDS011;64015;49.392;15.582;2023-08-01T11:28:07;5.22;;;2.80;;
75437;SDS011;64015;49.392;15.582;2023-08-01T11:30:35;5.22;;;3.10;;
75437;SDS011;64015;49.392;15.582;2023-08-01T11:33:01;7.75;;;3.08;;
75437;SDS011;64015;49.392;15.582;2023-08-01T11:35:29;6.43;;;4.05;;
75437;SDS011;64015;49.392;15.582;2023-08-01T11:37:55;4.72;;;2.72;;
75437;SDS011;64015;49.392;15.582;2023-08-01T11:40:21;6.63;;;3.47;;
75437;SDS011;64015;49.392;15.582;2023-08-01T11:42:53;4.68;;;2.80;;
75437;SDS011;64015;49.392;15.582;2023-08-01T11:47:59;6.70;;;3.13;;
75437;SDS011;64015;49.392;15.582;2023-08-01T11:50:25;7.00;;;3.53;;
75437;SDS011;64015;49.392;15.582;2023-08-01T11:52:51;5.97;;;2.88;;
75437;SDS011;64015;49.392;15.582;2023-08-01T11:55:29;7.85;;;3.53;;
75437;SDS011;64015;49.392;15.582;2023-08-01T11:58:00;6.65;;;3.08;;
75437;SDS011;64015;49.392;15.582;2023-08-01T12:00:27;7.70;;;3.42;;
75437;SDS011;64015;49.392;15.582;2023-08-01T12:03:04;7.07;;;4.07;;
75437;SDS011;64015;49.392;15.582;2023-08-01T12:05:31;4.93;;;2.95;;
75437;SDS011;64015;49.392;15.582;2023-08-01T12:08:07;7.18;;;3.70;;
75437;SDS011;64015;49.392;15.582;2023-08-01T12:10:37;5.30;;;3.25;;
75437;SDS011;64015;49.392;15.582;2023-08-01T12:15:57;7.15;;;3.45;;
75437;SDS011;64015;49.392;15.582;2023-08-01T12:18:27;7.65;;;3.75;;
75437;SDS011;64015;49.392;15.582;2023-08-01T12:20:54;5.63;;;3.22;;
75437;SDS011;64015;49.392;15.582;2023-08-01T12:23:20;8.27;;;4.13;;
75437;SDS011;64015;49.392;15.582;2023-08-01T12:25:46;6.55;;;3.25;;
75437;SDS011;64015;49.392;15.582;2023-08-01T12:28:13;6.82;;;3.75;;
75437;SDS011;64015;49.392;15.582;2023-08-01T12:30:40;6.30;;;3.85;;
75437;SDS011;64015;49.392;15.582;2023-08-01T12:33:24;6.15;;;3.15;;
75437;SDS011;64015;49.392;15.582;2023-08-01T12:35:50;10.38;;;3.55;;
75437;SDS011;64015;49.392;15.582;2023-08-01T12:38:16;8.27;;;3.92;;
75437;SDS011;64015;49.392;15.582;2023-08-01T12:40:43;7.57;;;3.70;;
75437;SDS011;64015;49.392;15.582;2023-08-01T12:43:26;9.25;;;4.05;;
75437;SDS011;64015;49.392;15.582;2023-08-01T12:45:52;9.10;;;3.50;;
75437;SDS011;64015;49.392;15.582;2023-08-01T12:48:20;6.18;;;3.38;;
75437;SDS011;64015;49.392;15.582;2023-08-01T12:50:45;7.15;;;4.00;;
75437;SDS011;64015;49.392;15.582;2023-08-01T12:53:12;10.88;;;3.97;;
75437;SDS011;64015;49.392;15.582;2023-08-01T12:55:38;6.38;;;3.53;;
75437;SDS011;64015;49.392;15.582;2023-08-01T12:58:04;7.75;;;4.10;;
75437;SDS011;64015;49.392;15.582;2023-08-01T13:00:30;7.78;;;4.05;;
75437;SDS011;64015;49.392;15.582;2023-08-01T13:02:58;8.50;;;4.25;;
75437;SDS011;64015;49.392;15.582;2023-08-01T13:05:24;8.80;;;4.00;;
75437;SDS011;64015;49.392;15.582;2023-08-01T13:07:50;10.20;;;3.90;;
75437;SDS011;64015;49.392;15.582;2023-08-01T13:10:15;6.78;;;4.10;;
75437;SDS011;64015;49.392;15.582;2023-08-01T13:12:41;6.60;;;3.53;;
75437;SDS011;64015;49.392;15.582;2023-08-01T13:15:07;7.25;;;4.53;;
75437;SDS011;64015;49.392;15.582;2023-08-01T13:20:18;8.13;;;4.13;;
75437;SDS011;64015;49.392;15.582;2023-08-01T13:22:45;7.45;;;4.00;;
75437;SDS011;64015;49.392;15.582;2023-08-01T13:25:12;7.32;;;4.00;;
75437;SDS011;64015;49.392;15.582;2023-08-01T13:27:39;7.80;;;4.32;;
75437;SDS011;64015;49.392;15.582;2023-08-01T13:30:04;12.43;;;4.50;;
75437;SDS011;64015;49.392;15.582;2023-08-01T13:32:35;5.38;;;3.15;;
75437;SDS011;64015;49.392;15.582;2023-08-01T13:35:01;6.40;;;3.97;;
75437;SDS011;64015;49.392;15.582;2023-08-01T13:37:28;8.88;;;4.32;;
75437;SDS011;64015;49.392;15.582;2023-08-01T13:40:15;6.88;;;3.83;;
75437;SDS011;64015;49.392;15.582;2023-08-01T13:42:40;5.95;;;3.40;;
75437;SDS011;64015;49.392;15.582;2023-08-01T13:45:07;10.02;;;4.38;;
75437;SDS011;64015;49.392;15.582;2023-08-01T13:47:33;8.88;;;3.70;;
75437;SDS011;64015;49.392;15.582;2023-08-01T13:49:58;7.65;;;3.90;;
75437;SDS011;64015;49.392;15.582;2023-08-01T13:52:24;6.93;;;3.92;;
75437;SDS011;64015;49.392;15.582;2023-08-01T13:54:50;6.00;;;3.25;;
75437;SDS011;64015;49.392;15.582;2023-08-01T13:57:16;8.02;;;4.00;;
75437;SDS011;64015;49.392;15.582;2023-08-01T13:59:42;8.02;;;3.85;;
75437;SDS011;64015;49.392;15.582;2023-08-01T14:02:08;6.38;;;2.95;;
75437;SDS011;64015;49.392;15.582;2023-08-01T14:04:52;7.15;;;3.72;;
75437;SDS011;64015;49.392;15.582;2023-08-01T14:07:18;7.88;;;4.00;;
75437;SDS011;64015;49.392;15.582;2023-08-01T14:09:44;7.20;;;3.63;;
75437;SDS011;64015;49.392;15.582;2023-08-01T14:12:18;6.35;;;4.03;;
75437;SDS011;64015;49.392;15.582;2023-08-01T14:14:44;6.53;;;3.75;;
75437;SDS011;64015;49.392;15.582;2023-08-01T14:17:10;5.85;;;3.40;;
75437;SDS011;64015;49.392;15.582;2023-08-01T14:19:36;6.70;;;3.90;;
75437;SDS011;64015;49.392;15.582;2023-08-01T14:22:02;7.10;;;3.58;;
75437;SDS011;64015;49.392;15.582;2023-08-01T14:24:28;5.32;;;3.10;;
75437;SDS011;64015;49.392;15.582;2023-08-01T14:26:54;6.40;;;3.30;;
75437;SDS011;64015;49.392;15.582;2023-08-01T14:29:20;6.10;;;3.10;;
75437;SDS011;64015;49.392;15.582;2023-08-01T14:31:50;6.88;;;2.80;;
75437;SDS011;64015;49.392;15.582;2023-08-01T14:34:16;7.35;;;2.75;;
75437;SDS011;64015;49.392;15.582;2023-08-01T14:39:12;4.38;;;2.85;;
75437;SDS011;64015;49.392;15.582;2023-08-01T14:41:37;6.05;;;2.85;;
75437;SDS011;64015;49.392;15.582;2023-08-01T14:44:03;4.82;;;2.80;;
75437;SDS011;64015;49.392;15.582;2023-08-01T14:46:29;5.05;;;2.47;;
75437;SDS011;64015;49.392;15.582;2023-08-01T14:48:55;4.10;;;2.10;;
75437;SDS011;64015;49.392;15.582;2023-08-01T14:51:22;5.47;;;2.33;;
75437;SDS011;64015;49.392;15.582;2023-08-01T14:53:48;5.45;;;2.88;;
75437;SDS011;64015;49.392;15.582;2023-08-01T14:56:14;5.22;;;2.42;;
75437;SDS011;64015;49.392;15.582;2023-08-01T14:58:39;4.88;;;2.42;;
75437;SDS011;64015;49.392;15.582;2023-08-01T15:01:12;4.95;;;2.50;;
75437;SDS011;64015;49.392;15.582;2023-08-01T15:03:39;4.60;;;2.20;;
75437;SDS011;64015;49.392;15.582;2023-08-01T15:06:08;5.45;;;3.05;;